Have a Safe July 4th! 

Flight Track Log - Related Links

Times and Time Zones

All times are in EDT time to prevent confusion due to time zone crossing. See the AWI3778 flight status page for this flight to view local times or setup timezone preferences in your user account.

Time Position Orientation Groundspeed Altitude Reporting Facility
EDT Latitude Longitude Course Direction KTS MPH feet Rate Location/Type
Fri 01:32:00 PM 44.1733 -73.2574 196° South  Level FlightAware Approximate
Fri 01:32:54 PM 44.2631 -73.1764 197° South 298 343 8,100  Level Boston Center
Fri 01:33:00 PM 44.0758 -73.2964 196° South  Level FlightAware Approximate
Fri 01:33:51 PM 44.1900 -73.2072 197° South 283 326 10,800  Level Boston Center
Fri 01:34:00 PM 43.9783 -73.3354 196° South  Level FlightAware Approximate
Fri 01:34:52 PM 44.1086 -73.2411 197° South 297 342 12,800  Level Boston Center
Fri 01:35:00 PM 43.8807 -73.3738 195° South  Level FlightAware Approximate
Fri 01:35:52 PM 44.0269 -73.2775 198° South 308 354 15,600  Level Boston Center
Fri 01:36:00 PM 43.7827 -73.4100 195° South  Level FlightAware Approximate
Fri 01:36:53 PM 43.9497 -73.3108 197° South 300 345 17,800  Level Boston Center
Fri 01:37:00 PM 43.6846 -73.4462 195° South  Level FlightAware Approximate
Fri 01:37:53 PM 43.8764 -73.3647 208° Southwest 294 338 18,800  Level Boston Center
Fri 01:38:54 PM 43.8028 -73.4353 215° Southwest 316 364 19,900 1,109 Climbing Boston Center
Fri 01:39:52 PM 43.7314 -73.5061 216° Southwest 346 398 21,000 1,068 Climbing Boston Center
Fri 01:40:52 PM 43.6514 -73.5792 213° Southwest 351 404 22,000 942 Climbing Boston Center
Fri 01:41:53 PM 43.5861 -73.6411 215° Southwest 351 404 22,900 1,008 Climbing Boston Center
Fri 01:42:51 PM 43.4872 -73.7392 216° Southwest 361 415 24,000 555 Climbing Boston Center
Fri 01:43:52 PM 43.3903 -73.8286 214° Southwest 374 430 24,000  Level Boston Center
Fri 01:44:53 PM 43.3017 -73.9122 214° Southwest 387 445 24,000  Level Boston Center
Fri 01:45:53 PM 43.2131 -73.9983 215° Southwest 392 451 24,000  Level Boston Center
Fri 01:46:51 PM 43.1222 -74.0814 214° Southwest 397 457 24,000  Level Boston Center
Fri 01:47:52 PM 43.0333 -74.1672 215° Southwest 397 457 24,000  Level Boston Center
Fri 01:48:53 PM 42.9425 -74.2553 215° Southwest 404 465 24,000  Level Boston Center
Fri 01:49:53 PM 42.8514 -74.3375 213° Southwest 404 465 24,000  Level Boston Center
Fri 01:50:51 PM 42.7625 -74.4225 215° Southwest 404 465 24,000  Level Boston Center
Fri 01:51:51 PM 42.6733 -74.5044 214° Southwest 404 465 24,000  Level Boston Center
Fri 01:52:52 PM 42.5844 -74.5861 214° Southwest 404 465 24,000 -149 Level Boston Center
Fri 01:53:52 PM 42.4953 -74.6703 215° Southwest 399 459 23,700 -496 Descending Boston Center
Fri 01:54:53 PM 42.4081 -74.7514 214° Southwest 399 459 23,000 -744 Descending Boston Center
Fri 01:55:53 PM 42.3189 -74.8353 215° Southwest 399 459 22,200 -831 Descending Boston Center
Fri 01:57:03 PM 42.2275 -74.9131 212° Southwest 399 459 21,200 -910 Descending Boston Center
Fri 01:59:24 PM 41.9981 -75.1106 213° Southwest 381 438 19,000 -657 Descending New York Center
Fri 02:00:24 PM 41.9167 -75.1747 210° Southwest 387 445 19,000 -100 Level New York Center
Fri 02:01:24 PM 41.8286 -75.2469 211° Southwest 387 445 18,800 -1,100 Descending New York Center
Fri 02:02:24 PM 41.7342 -75.3211 210° Southwest 373 429 16,800 -1,950 Descending New York Center
Fri 02:03:24 PM 41.6503 -75.3903 212° Southwest 365 420 14,900 -1,850 Descending New York Center
Fri 02:04:24 PM 41.5622 -75.4619 211° Southwest 376 433 13,100 -1,400 Descending New York Center
Fri 02:05:24 PM 41.4825 -75.5228 210° Southwest 376 433 12,100 -550 Descending New York Center
Fri 02:06:24 PM 41.3986 -75.5914 212° Southwest 371 427 12,000 -50 Descending New York Center
Fri 02:07:24 PM 41.3106 -75.6569 209° Southwest 371 427 12,000  Level New York Center
Fri 02:08:24 PM 41.2072 -75.6881 193° South 352 405 12,000  Level New York Center
Fri 02:09:24 PM 41.1072 -75.6892 180° South 357 411 12,000  Level New York Center
Fri 02:10:24 PM 41.0072 -75.6875 179° South 363 418 12,000  Level New York Center
Fri 02:11:24 PM 40.9050 -75.6883 180° South 368 423 12,000  Level New York Center
Fri 02:12:24 PM 40.8053 -75.6867 179° South 368 423 12,000 -500 Level New York Center
Fri 02:13:24 PM 40.7242 -75.6286 152° Southeast 357 411 11,000 -1,000 Descending New York Center
Fri 02:14:24 PM 40.6250 -75.5589 152° Southeast 364 419 10,000 -500 Descending New York Center
Fri 02:15:24 PM 40.5481 -75.5014 150° Southeast 357 411 10,000 -350 Level New York Center
Fri 02:16:24 PM 40.4689 -75.4469 152° Southeast 307 353 9,300 -1,350 Descending New York Center
Fri 02:17:24 PM 40.4100 -75.4103 155° Southeast 282 325 7,300 -1,200 Descending New York Center
Fri 02:18:24 PM 40.3347 -75.3644 155° Southeast 271 312 6,900 -950 Descending New York Center
Fri 02:19:24 PM 40.2692 -75.3300 158° South 271 312 5,400 -1,400 Descending New York Center
Fri 02:20:24 PM 40.2058 -75.3014 161° South 261 300 4,100 -700 Descending New York Center
Fri 02:21:24 PM 40.1444 -75.2731 161° South 234 269 4,000 -50 Descending New York Center
Fri 02:22:24 PM 40.0892 -75.2450 159° South 217 250 4,000  Level New York Center
Fri 02:23:24 PM 40.0358 -75.2200 160° South 217 250 4,000  Level New York Center
Fri 02:24:24 PM 39.9764 -75.1917 160° South 217 250 4,000  Level New York Center
Fri 02:25:24 PM 39.9317 -75.1672 157° South 212 244 4,000  Level New York Center
Fri 02:26:24 PM 39.8742 -75.1419 161° South 207 238 4,000 -50 Level New York Center
Fri 02:27:24 PM 39.8228 -75.1172 160° South 207 238 3,900 -950 Descending New York Center
Fri 02:28:24 PM 39.7897 -75.1664 229° Southwest 171 197 2,100 -1,149 Descending New York Center
Fri 02:29:45 PM 39.8167 -75.2000 316° Northwest 158 182 1,200 -800 Descending Philadelphia TRACON
Fri 02:30:39 PM 39.8667 -75.2167 346° North 154 177 300 -1,000 Descending Philadelphia TRACON

Login

Don't have an account? Register now (free) for customized features, flight alerts, and more!